Time;durP1;ratioP1;P1;durP2;ratioP2;P2;SDS_P1;SDS_P2;PMS_P1;PMS_P2;Temp;Humidity;BMP_temperature;BMP_pressure;BME280_temperature;BME280_humidity;BME280_pressure;Samples;Min_cycle;Max_cycle;Signal;HPM_P1;HPM_P2
2021/12/07 00:01:49;;;;;;;14.70;13.50;;;2.90;99.90;;;;;;5018723;28;20168;-68
2021/12/07 00:04:14;;;;;;;14.40;13.33;;;3.00;99.90;;;;;;5014081;28;20564;-68
2021/12/07 00:06:41;;;;;;;13.43;12.37;;;3.00;99.90;;;;;;5027373;28;20242;-68
2021/12/07 00:09:12;;;;;;;13.60;12.60;;;3.00;99.90;;;;;;5033806;28;20179;-67
2021/12/07 00:11:38;;;;;;;12.23;11.43;;;3.10;99.90;;;;;;5020898;28;20172;-68
2021/12/07 00:14:12;;;;;;;10.93;10.00;;;3.20;99.90;;;;;;5013650;28;20638;-68
2021/12/07 00:16:38;;;;;;;9.67;8.97;;;3.20;99.90;;;;;;5025671;28;20668;-68
2021/12/07 00:19:04;;;;;;;9.00;8.40;;;3.20;99.90;;;;;;5033594;28;20171;-68
2021/12/07 00:21:31;;;;;;;9.20;8.70;;;3.10;99.90;;;;;;5022823;28;20177;-68
2021/12/07 00:23:57;;;;;;;9.70;9.20;;;3.10;99.90;;;;;;5013847;28;20173;-68
2021/12/07 00:26:23;;;;;;;9.67;9.17;;;3.00;99.90;;;;;;5023141;28;21852;-68
2021/12/07 00:28:50;;;;;;;9.70;9.20;;;3.00;99.90;;;;;;5033422;28;20183;-68
2021/12/07 00:31:30;;;;;;;9.57;9.07;;;2.90;99.90;;;;;;5014215;28;20656;-68
2021/12/07 00:35:00;;;;;;;10.50;9.90;;;2.90;99.90;;;;;;5014745;28;20180;-68
2021/12/07 00:36:48;;;;;;;10.90;10.20;;;2.90;99.90;;;;;;4990297;28;20705;-67
2021/12/07 00:39:17;;;;;;;10.83;10.23;;;2.80;99.90;;;;;;4987133;28;20317;-67
2021/12/07 00:41:44;;;;;;;10.63;9.70;;;2.80;99.90;;;;;;5029462;28;20624;-68
2021/12/07 00:44:10;;;;;;;10.73;10.17;;;2.80;99.90;;;;;;5013368;28;20248;-67
2021/12/07 00:46:36;;;;;;;10.40;9.87;;;2.80;99.90;;;;;;5015030;28;20699;-67
2021/12/07 00:49:03;;;;;;;10.50;9.90;;;2.80;99.90;;;;;;5013362;28;20179;-66
2021/12/07 00:51:29;;;;;;;10.63;10.03;;;2.90;99.90;;;;;;5027465;28;20186;-68
2021/12/07 00:53:55;;;;;;;11.70;11.10;;;2.90;99.90;;;;;;5032774;28;20175;-68
2021/12/07 00:56:22;;;;;;;12.70;12.00;;;2.90;99.90;;;;;;5020451;28;20243;-68
2021/12/07 00:58:48;;;;;;;12.13;11.43;;;3.00;99.90;;;;;;5022268;28;20225;-68
2021/12/07 01:01:18;;;;;;;12.00;11.30;;;3.00;99.90;;;;;;5031472;28;20167;-69
2021/12/07 01:03:43;;;;;;;10.97;10.27;;;3.10;99.90;;;;;;5032048;28;20175;-68
2021/12/07 01:08:56;;;;;;;10.90;10.00;;;3.20;99.90;;;;;;5013475;28;20212;-67
2021/12/07 01:25:09;;;;;;;11.17;10.40;;;3.60;99.90;;;;;;5032764;28;20241;-68
2021/12/07 01:27:36;;;;;;;10.60;9.67;;;3.60;99.90;;;;;;5021883;28;20591;-68
2021/12/07 01:30:17;;;;;;;13.80;11.37;;;3.70;99.90;;;;;;5018020;28;20237;-67
2021/12/07 01:33:18;;;;;;;13.27;11.80;;;3.70;99.90;;;;;;5032076;28;20195;-68
2021/12/07 01:36:05;;;;;;;15.00;13.60;;;3.80;99.90;;;;;;5021213;28;20196;-67
2021/12/07 01:41:24;;;;;;;15.50;13.37;;;3.80;99.90;;;;;;5020378;28;20676;-68
2021/12/07 01:44:20;;;;;;;12.57;11.47;;;3.80;99.90;;;;;;5012072;28;20202;-67
2021/12/07 01:46:48;;;;;;;13.43;12.33;;;3.90;99.90;;;;;;5010934;28;20689;-67
2021/12/07 02:00:16;;;;;;;13.50;12.10;;;4.10;99.90;;;;;;4990330;28;20172;-68
2021/12/07 02:02:42;;;;;;;11.00;10.07;;;4.10;99.90;;;;;;5009865;28;20187;-68
2021/12/07 02:05:09;;;;;;;12.17;11.07;;;4.10;99.90;;;;;;5012008;28;20214;-68
2021/12/07 02:07:35;;;;;;;12.77;11.00;;;4.10;99.90;;;;;;5020437;28;20195;-68
2021/12/07 02:10:07;;;;;;;11.63;10.60;;;4.10;99.90;;;;;;5031838;28;20258;-68
2021/12/07 02:12:42;;;;;;;11.60;10.70;;;4.20;99.90;;;;;;5021838;28;20176;-68
2021/12/07 02:15:14;;;;;;;10.93;10.03;;;4.20;99.90;;;;;;5012095;28;20199;-68
2021/12/07 02:17:40;;;;;;;12.80;11.70;;;4.20;99.90;;;;;;5021619;28;20214;-68
2021/12/07 02:20:07;;;;;;;11.07;9.77;;;4.20;99.90;;;;;;5031617;28;20163;-68
2021/12/07 02:22:34;;;;;;;12.27;9.40;;;4.20;99.90;;;;;;5022601;28;20661;-68
2021/12/07 02:25:00;;;;;;;10.67;9.10;;;4.20;99.90;;;;;;5011841;28;20194;-68
2021/12/07 02:27:26;;;;;;;9.50;8.80;;;4.20;99.90;;;;;;5018332;28;20200;-68
2021/12/07 02:29:51;;;;;;;11.33;10.37;;;4.30;99.90;;;;;;5031546;28;20175;-67
2021/12/07 02:32:17;;;;;;;11.73;10.70;;;4.30;99.90;;;;;;5025522;28;20180;-67
2021/12/07 02:34:53;;;;;;;11.03;10.17;;;4.30;99.90;;;;;;5011582;28;20164;-68
2021/12/07 02:37:27;;;;;;;13.50;11.17;;;4.40;99.90;;;;;;5052163;22;20227;-65
2021/12/07 02:39:53;;;;;;;12.37;11.27;;;4.40;99.90;;;;;;5031435;28;20163;-66
2021/12/07 02:42:19;;;;;;;11.20;10.40;;;4.40;99.90;;;;;;5046663;28;20288;-65
2021/12/07 02:44:45;;;;;;;11.63;10.87;;;4.50;99.90;;;;;;5031227;28;20178;-66
2021/12/07 02:47:11;;;;;;;11.90;11.07;;;4.50;99.90;;;;;;5034392;28;20196;-66
2021/12/07 02:49:36;;;;;;;10.87;10.07;;;4.60;99.90;;;;;;5031281;28;20176;-66
2021/12/07 02:52:04;;;;;;;12.93;11.70;;;4.60;99.90;;;;;;5030823;28;20190;-66
2021/12/07 02:54:33;;;;;;;11.23;10.40;;;4.70;99.90;;;;;;5031177;28;20175;-66
2021/12/07 02:56:58;;;;;;;14.13;10.77;;;4.70;99.90;;;;;;5029515;28;20601;-66
2021/12/07 02:59:26;;;;;;;11.87;10.70;;;4.70;99.90;;;;;;5030056;28;20175;-66
2021/12/07 03:02:00;;;;;;;10.30;9.57;;;4.70;99.90;;;;;;5030597;28;20234;-67
2021/12/07 03:04:33;;;;;;;11.93;9.43;;;4.80;99.90;;;;;;5031039;28;20175;-66
2021/12/07 03:07:10;;;;;;;10.20;9.27;;;4.80;99.90;;;;;;5030945;28;20222;-66
2021/12/07 03:26:09;;;;;;;11.50;10.13;;;4.80;99.90;;;;;;5032335;28;20190;-65
2021/12/07 03:28:44;;;;;;;14.67;9.60;;;4.80;99.90;;;;;;5034458;28;20245;-66
2021/12/07 03:31:10;;;;;;;9.67;8.67;;;4.80;99.90;;;;;;5034092;28;20183;-66
2021/12/07 03:33:36;;;;;;;9.30;8.60;;;4.80;99.90;;;;;;5034278;28;20180;-64
2021/12/07 03:36:03;;;;;;;10.73;9.73;;;4.70;99.90;;;;;;5034588;28;20211;-66
2021/12/07 03:38:29;;;;;;;9.67;8.67;;;4.80;99.90;;;;;;5033977;28;20642;-65
2021/12/07 03:40:55;;;;;;;11.37;9.77;;;4.80;99.90;;;;;;5034126;28;20178;-64
2021/12/07 03:43:21;;;;;;;9.17;8.30;;;4.70;99.90;;;;;;5033961;28;20176;-64
2021/12/07 03:45:46;;;;;;;13.30;9.30;;;4.80;99.90;;;;;;5034219;28;20175;-65
2021/12/07 03:48:13;;;;;;;10.47;9.57;;;4.70;99.90;;;;;;5034234;28;20195;-66
2021/12/07 03:50:39;;;;;;;9.60;8.70;;;4.70;99.90;;;;;;5034173;28;20176;-65
2021/12/07 03:53:05;;;;;;;11.90;8.07;;;4.70;99.90;;;;;;5033361;28;20257;-64
2021/12/07 03:55:32;;;;;;;9.07;8.37;;;4.70;99.90;;;;;;5033879;28;20203;-65
2021/12/07 03:57:57;;;;;;;11.77;8.87;;;4.70;99.90;;;;;;5033532;28;20226;-64
2021/12/07 04:00:25;;;;;;;9.33;8.43;;;4.70;99.90;;;;;;5034004;28;20200;-64
2021/12/07 04:02:53;;;;;;;10.90;8.73;;;4.60;99.90;;;;;;5033403;28;20267;-64
2021/12/07 04:05:21;;;;;;;9.50;8.60;;;4.60;99.90;;;;;;5033886;28;20163;-64
2021/12/07 04:07:47;;;;;;;10.17;9.40;;;4.60;99.90;;;;;;5032110;28;20202;-65
2021/12/07 04:10:16;;;;;;;11.03;9.57;;;4.50;99.90;;;;;;5033979;28;20652;-65
2021/12/07 04:12:42;;;;;;;14.60;9.13;;;4.40;99.90;;;;;;5032924;28;20201;-66
2021/12/07 04:15:10;;;;;;;8.90;8.20;;;4.40;99.90;;;;;;5033413;28;20207;-66
2021/12/07 04:17:36;;;;;;;10.60;9.20;;;4.30;99.90;;;;;;5033504;28;20202;-66
2021/12/07 04:20:05;;;;;;;10.27;9.37;;;4.30;99.90;;;;;;5033254;28;20171;-65
2021/12/07 04:22:31;;;;;;;13.73;9.80;;;4.30;99.90;;;;;;5033384;28;20179;-62
2021/12/07 04:24:56;;;;;;;12.67;9.43;;;4.20;99.90;;;;;;5032974;28;20172;-66
2021/12/07 04:27:22;;;;;;;12.27;9.60;;;4.20;99.90;;;;;;5033387;28;20217;-66
2021/12/07 04:29:48;;;;;;;10.13;9.30;;;4.20;99.90;;;;;;5033027;28;20172;-66
2021/12/07 04:32:14;;;;;;;9.17;7.90;;;4.20;99.90;;;;;;5033168;28;20238;-64
2021/12/07 04:34:39;;;;;;;9.33;8.53;;;4.30;99.90;;;;;;5033164;28;20174;-65
2021/12/07 04:37:05;;;;;;;8.77;8.27;;;4.30;99.90;;;;;;5031561;28;20234;-66
2021/12/07 04:39:30;;;;;;;11.23;9.07;;;4.30;99.90;;;;;;5033138;28;20576;-65
2021/12/07 04:41:56;;;;;;;13.37;8.97;;;4.30;99.90;;;;;;5032808;28;20206;-65
2021/12/07 04:44:23;;;;;;;10.07;8.63;;;4.30;99.90;;;;;;5032894;28;20179;-65
2021/12/07 04:57:45;;;;;;;9.87;9.17;;;4.10;99.90;;;;;;4971499;28;20741;-65
2021/12/07 05:00:23;;;;;;;11.10;9.63;;;4.00;99.90;;;;;;5022417;28;20214;-65
2021/12/07 05:03:11;;;;;;;10.73;9.73;;;4.00;99.90;;;;;;5032113;28;20209;-65
2021/12/07 05:05:43;;;;;;;10.30;9.30;;;4.00;99.90;;;;;;5031267;28;20179;-66
2021/12/07 05:08:12;;;;;;;13.43;9.80;;;3.90;99.90;;;;;;5012846;28;20204;-65
2021/12/07 05:11:10;;;;;;;10.10;9.23;;;3.90;99.90;;;;;;5012937;28;20169;-66
2021/12/07 05:18:53;;;;;;;10.67;10.07;;;3.90;99.90;;;;;;5032286;28;20746;-66
2021/12/07 05:24:08;;;;;;;11.33;10.43;;;3.90;99.90;;;;;;5031762;28;20698;-66
2021/12/07 05:40:15;;;;;;;10.70;9.73;;;3.90;99.90;;;;;;5031331;28;20517;-66
2021/12/07 05:42:41;;;;;;;11.10;10.13;;;3.90;99.90;;;;;;5031610;28;20262;-66
2021/12/07 05:45:11;;;;;;;11.17;10.07;;;3.90;99.90;;;;;;5031403;28;20188;-64
2021/12/07 05:47:37;;;;;;;11.30;10.50;;;3.90;99.90;;;;;;5031754;28;20221;-65
2021/12/07 05:50:05;;;;;;;11.97;10.97;;;3.90;99.90;;;;;;5031532;28;20182;-66
2021/12/07 05:52:31;;;;;;;14.50;11.10;;;3.90;99.90;;;;;;5031250;28;20206;-65
2021/12/07 05:54:56;;;;;;;11.93;10.80;;;3.90;99.90;;;;;;5031500;28;20668;-66
2021/12/07 05:57:22;;;;;;;10.20;9.20;;;3.90;99.90;;;;;;5029654;28;20199;-65
2021/12/07 05:59:47;;;;;;;11.47;10.37;;;3.90;99.90;;;;;;5030172;28;20668;-66
2021/12/07 06:02:13;;;;;;;12.40;10.10;;;3.90;99.90;;;;;;5031504;28;20175;-65
2021/12/07 06:04:39;;;;;;;10.60;9.80;;;3.90;99.90;;;;;;5031368;28;20172;-65
2021/12/07 06:07:05;;;;;;;10.43;9.47;;;3.80;99.90;;;;;;5031537;28;20274;-65
2021/12/07 06:09:31;;;;;;;11.33;10.23;;;3.80;99.90;;;;;;5031645;28;20266;-65
2021/12/07 06:11:57;;;;;;;11.80;10.07;;;3.70;99.90;;;;;;5031326;28;20258;-64
2021/12/07 06:14:30;;;;;;;10.40;9.67;;;3.70;99.90;;;;;;5030299;28;20182;-65
2021/12/07 06:16:56;;;;;;;13.47;10.77;;;3.70;99.90;;;;;;5031395;28;20207;-66
2021/12/07 06:19:21;;;;;;;12.83;9.60;;;3.80;99.90;;;;;;5031606;28;20174;-65
2021/12/07 06:21:47;;;;;;;11.37;9.20;;;3.70;99.90;;;;;;5031349;28;20175;-65
2021/12/07 06:24:12;;;;;;;10.00;9.23;;;3.70;99.90;;;;;;5031083;28;20640;-65
2021/12/07 06:26:38;;;;;;;10.03;8.67;;;3.70;99.90;;;;;;5031451;28;20262;-64
2021/12/07 06:29:04;;;;;;;9.77;9.13;;;3.70;99.90;;;;;;5029658;28;20531;-65
2021/12/07 06:31:30;;;;;;;10.63;9.73;;;3.60;99.90;;;;;;5030194;28;20179;-66
2021/12/07 06:33:56;;;;;;;10.10;9.27;;;3.60;99.90;;;;;;5030859;28;20186;-66
2021/12/07 06:36:24;;;;;;;11.00;10.20;;;3.60;99.90;;;;;;5031413;28;20683;-66
2021/12/07 06:38:50;;;;;;;10.97;10.07;;;3.70;99.90;;;;;;5030935;28;20720;-66
2021/12/07 06:41:15;;;;;;;11.07;10.17;;;3.70;99.90;;;;;;5031271;28;20672;-65
2021/12/07 06:43:41;;;;;;;9.63;8.87;;;3.80;99.90;;;;;;5030762;28;20176;-65
2021/12/07 06:46:07;;;;;;;10.97;10.10;;;3.80;99.90;;;;;;5031163;28;20206;-66
2021/12/07 06:48:32;;;;;;;12.43;11.30;;;3.80;99.90;;;;;;5031071;28;20199;-65
2021/12/07 06:50:59;;;;;;;10.47;9.50;;;3.80;99.90;;;;;;5030893;28;20183;-65
2021/12/07 06:53:24;;;;;;;12.37;11.40;;;3.80;99.90;;;;;;5029355;28;20600;-66
2021/12/07 06:55:50;;;;;;;12.03;10.90;;;3.80;99.90;;;;;;5029990;28;20286;-66
2021/12/07 06:58:15;;;;;;;11.90;10.67;;;3.80;99.90;;;;;;5030990;28;20562;-65
2021/12/07 07:00:42;;;;;;;12.67;10.33;;;3.70;99.90;;;;;;5030964;28;20569;-65
2021/12/07 07:03:07;;;;;;;10.60;9.70;;;3.70;99.90;;;;;;5034242;28;20702;-66
2021/12/07 07:05:34;;;;;;;10.20;9.40;;;3.60;99.90;;;;;;5035032;28;20183;-65
2021/12/07 07:07:59;;;;;;;11.43;10.30;;;3.60;99.90;;;;;;5034429;28;20293;-65
2021/12/07 07:10:26;;;;;;;11.90;10.13;;;3.50;99.90;;;;;;5033622;28;20203;-66
2021/12/07 07:12:51;;;;;;;11.90;10.70;;;3.50;99.90;;;;;;5034236;28;20269;-65
2021/12/07 07:15:18;;;;;;;10.77;9.07;;;3.40;99.90;;;;;;5034690;28;20333;-66
2021/12/07 07:17:44;;;;;;;9.90;8.67;;;3.40;99.90;;;;;;5034244;28;20286;-66
2021/12/07 07:20:13;;;;;;;9.37;8.60;;;3.40;99.90;;;;;;5034644;28;20171;-65
2021/12/07 07:22:39;;;;;;;9.27;8.50;;;3.40;99.90;;;;;;5033206;28;20167;-66
2021/12/07 07:25:06;;;;;;;9.43;8.50;;;3.40;99.90;;;;;;5013858;28;20664;-65
2021/12/07 07:27:31;;;;;;;9.30;8.57;;;3.30;99.90;;;;;;5028146;28;20210;-65
2021/12/07 07:29:57;;;;;;;8.73;8.23;;;3.30;99.90;;;;;;5034237;28;20167;-65
2021/12/07 07:32:23;;;;;;;13.23;8.97;;;3.30;99.90;;;;;;5033886;28;20182;-65
2021/12/07 07:34:49;;;;;;;10.67;9.57;;;3.30;99.90;;;;;;5033882;28;20641;-66
2021/12/07 07:37:14;;;;;;;12.93;9.63;;;3.30;99.90;;;;;;5033844;28;20211;-65
2021/12/07 07:39:41;;;;;;;10.10;9.40;;;3.30;99.90;;;;;;5032877;28;20209;-65
2021/12/07 07:42:07;;;;;;;10.63;9.83;;;3.20;99.90;;;;;;5033938;28;20540;-66
2021/12/07 07:44:33;;;;;;;10.97;9.90;;;3.20;99.90;;;;;;5033959;28;20279;-65
2021/12/07 07:46:59;;;;;;;13.73;10.03;;;3.30;99.90;;;;;;5033686;28;20196;-66
2021/12/07 07:49:24;;;;;;;10.57;9.77;;;3.30;99.90;;;;;;5032794;28;20186;-65
2021/12/07 07:51:50;;;;;;;9.50;8.87;;;3.30;99.90;;;;;;5033594;28;20188;-66
2021/12/07 07:54:16;;;;;;;10.67;9.70;;;3.30;99.90;;;;;;5030815;28;20175;-65
2021/12/07 07:56:42;;;;;;;9.10;8.60;;;3.30;99.90;;;;;;5030882;28;20248;-64
2021/12/07 07:59:07;;;;;;;9.83;9.30;;;3.30;99.90;;;;;;5031980;28;20179;-65
2021/12/07 08:01:33;;;;;;;27.27;12.30;;;3.30;99.90;;;;;;5034099;28;20297;-64
2021/12/07 08:04:02;;;;;;;13.03;10.07;;;3.30;99.90;;;;;;5032492;28;20187;-65
2021/12/07 08:06:29;;;;;;;11.17;10.03;;;3.30;99.90;;;;;;5032355;28;20538;-64
2021/12/07 08:08:56;;;;;;;10.97;9.20;;;3.30;99.90;;;;;;5032337;28;20180;-64
2021/12/07 08:11:21;;;;;;;11.57;8.40;;;3.30;99.90;;;;;;5030365;28;20187;-64
2021/12/07 08:13:47;;;;;;;8.70;8.00;;;3.40;99.90;;;;;;5031907;28;20190;-65
2021/12/07 08:16:16;;;;;;;8.40;7.80;;;3.40;99.90;;;;;;5032566;28;20207;-64
2021/12/07 08:18:46;;;;;;;9.00;8.20;;;3.40;99.90;;;;;;5032364;28;20192;-65
2021/12/07 08:21:14;;;;;;;7.80;7.30;;;3.50;99.90;;;;;;5033609;28;20511;-63
2021/12/07 08:23:40;;;;;;;8.77;8.17;;;3.40;99.90;;;;;;5032792;28;20186;-65
2021/12/07 08:26:09;;;;;;;9.37;8.33;;;3.50;99.90;;;;;;5033055;28;20196;-65
2021/12/07 08:28:35;;;;;;;8.70;8.00;;;3.60;99.90;;;;;;5032495;28;20620;-64
2021/12/07 08:31:02;;;;;;;9.50;8.27;;;3.60;99.90;;;;;;5032605;28;20193;-66
2021/12/07 08:33:28;;;;;;;9.47;8.67;;;3.60;99.90;;;;;;5032614;28;20653;-65
2021/12/07 08:35:54;;;;;;;8.67;7.73;;;3.70;99.90;;;;;;5032994;28;20561;-65
2021/12/07 08:38:20;;;;;;;9.10;8.20;;;3.80;99.90;;;;;;5032939;28;20218;-66
2021/12/07 08:40:53;;;;;;;9.87;9.00;;;3.90;99.90;;;;;;5031651;28;20589;-64
2021/12/07 08:43:26;;;;;;;9.87;8.57;;;3.90;99.90;;;;;;5032170;28;20199;-66
2021/12/07 08:45:54;;;;;;;11.07;9.30;;;4.00;99.90;;;;;;5032716;28;20183;-65
2021/12/07 08:48:20;;;;;;;10.30;9.13;;;4.20;99.90;;;;;;5032479;28;20672;-65
2021/12/07 08:50:46;;;;;;;10.73;9.93;;;4.50;99.90;;;;;;5032940;28;20190;-65
2021/12/07 08:53:15;;;;;;;13.03;9.07;;;4.80;99.90;;;;;;5031936;28;20195;-65
2021/12/07 09:01:16;;;;;;;8.93;8.07;;;6.10;99.90;;;;;;5032739;28;20267;-65
2021/12/07 09:03:42;;;;;;;8.07;7.47;;;6.20;99.90;;;;;;5032363;28;20182;-66
2021/12/07 09:06:08;;;;;;;8.80;8.20;;;6.30;99.90;;;;;;5031956;28;20229;-66
2021/12/07 09:08:35;;;;;;;8.40;7.73;;;6.40;99.90;;;;;;5031819;28;20672;-65
2021/12/07 09:11:01;;;;;;;17.30;8.37;;;6.50;99.90;;;;;;5031575;28;20179;-65
2021/12/07 09:13:28;;;;;;;15.77;8.53;;;6.60;99.90;;;;;;5032156;28;20183;-66
2021/12/07 09:15:55;;;;;;;8.83;7.93;;;6.60;99.90;;;;;;5030911;28;20203;-66
2021/12/07 09:18:21;;;;;;;10.20;7.97;;;6.70;99.90;;;;;;5031947;28;20544;-66
2021/12/07 09:20:47;;;;;;;8.10;7.40;;;6.80;99.90;;;;;;5031922;28;20187;-65
2021/12/07 09:23:13;;;;;;;8.57;7.13;;;7.10;99.90;;;;;;5031196;28;20236;-65
2021/12/07 09:25:39;;;;;;;8.77;7.90;;;7.20;99.90;;;;;;5031874;28;20187;-65
2021/12/07 09:28:05;;;;;;;8.47;7.70;;;7.30;99.90;;;;;;5031042;28;20214;-66
2021/12/07 09:30:32;;;;;;;8.13;7.37;;;7.40;99.90;;;;;;5031750;28;20191;-64
2021/12/07 09:32:58;;;;;;;8.27;7.67;;;7.50;99.90;;;;;;5031356;28;20274;-65
2021/12/07 09:35:24;;;;;;;7.90;7.00;;;7.60;99.90;;;;;;5031997;28;20342;-65
2021/12/07 09:37:51;;;;;;;8.87;7.53;;;7.80;99.90;;;;;;5031747;28;20211;-65
2021/12/07 09:40:19;;;;;;;13.20;7.57;;;8.00;99.90;;;;;;5032061;28;20412;-66
2021/12/07 09:42:46;;;;;;;8.00;7.30;;;8.10;99.90;;;;;;5031339;28;20179;-66
2021/12/07 09:45:13;;;;;;;10.77;7.07;;;8.10;99.90;;;;;;5031667;28;20288;-66
2021/12/07 09:47:39;;;;;;;8.00;7.33;;;8.00;99.90;;;;;;5031414;28;20587;-66
2021/12/07 09:50:08;;;;;;;8.07;7.57;;;7.80;99.90;;;;;;5031556;28;20183;-66
2021/12/07 09:52:33;;;;;;;8.43;7.83;;;7.90;99.90;;;;;;5031512;28;20167;-66
2021/12/07 09:54:59;;;;;;;8.07;7.50;;;7.80;99.90;;;;;;5031271;28;20184;-66
2021/12/07 09:57:25;;;;;;;10.67;9.10;;;7.70;99.90;;;;;;5030589;28;20207;-66
2021/12/07 09:59:51;;;;;;;8.07;7.47;;;7.70;99.90;;;;;;5030761;28;20183;-66
2021/12/07 10:02:18;;;;;;;7.73;7.07;;;8.00;99.90;;;;;;5029625;28;20183;-66
2021/12/07 10:04:44;;;;;;;8.17;6.97;;;8.10;99.90;;;;;;5031542;28;20178;-66
2021/12/07 10:07:10;;;;;;;7.83;7.10;;;8.30;99.90;;;;;;5031204;28;20210;-65
2021/12/07 10:09:37;;;;;;;8.17;6.63;;;8.40;99.90;;;;;;5031060;28;20189;-67
2021/12/07 10:12:04;;;;;;;7.60;6.80;;;8.60;99.90;;;;;;5030951;28;20582;-66
2021/12/07 10:14:42;;;;;;;7.37;6.73;;;9.00;99.90;;;;;;5030444;28;20183;-66
2021/12/07 10:17:09;;;;;;;7.30;6.40;;;9.20;99.90;;;;;;5031194;28;20202;-66
2021/12/07 10:19:38;;;;;;;9.87;6.43;;;9.30;99.90;;;;;;5031059;28;20258;-66
2021/12/07 10:22:07;;;;;;;6.60;6.03;;;9.60;99.90;;;;;;5031293;28;20171;-66
2021/12/07 10:24:47;;;;;;;9.90;6.10;;;9.70;99.90;;;;;;5031297;28;20236;-66
2021/12/07 10:27:30;;;;;;;7.03;6.20;;;9.90;99.90;;;;;;5031006;28;20664;-65
2021/12/07 10:29:56;;;;;;;9.23;6.33;;;10.00;99.90;;;;;;5028479;28;20183;-66
2021/12/07 10:32:22;;;;;;;6.70;5.90;;;10.10;99.90;;;;;;5030133;28;20676;-66
2021/12/07 10:34:47;;;;;;;8.57;5.73;;;10.30;99.90;;;;;;5032486;28;20233;-66
2021/12/07 10:37:16;;;;;;;6.50;6.00;;;10.60;99.90;;;;;;5034799;28;20631;-66
2021/12/07 10:39:45;;;;;;;7.03;6.03;;;10.70;99.90;;;;;;5016715;28;20188;-66
2021/12/07 10:42:18;;;;;;;6.33;5.80;;;10.60;99.90;;;;;;5013916;28;20195;-66
2021/12/07 10:44:44;;;;;;;6.47;5.90;;;10.50;99.90;;;;;;5025232;28;20175;-65
2021/12/07 10:47:15;;;;;;;6.30;5.70;;;10.50;99.90;;;;;;5034581;28;20215;-65
2021/12/07 10:49:43;;;;;;;7.70;6.37;;;10.50;99.90;;;;;;5035109;28;20193;-66
2021/12/07 10:52:24;;;;;;;6.17;5.77;;;10.30;99.90;;;;;;5033700;28;20539;-66
2021/12/07 10:55:17;;;;;;;6.10;5.70;;;10.20;99.90;;;;;;5035122;28;20203;-66
2021/12/07 10:57:51;;;;;;;7.20;5.53;;;9.90;99.90;;;;;;5034800;28;20290;-65
2021/12/07 11:00:29;;;;;;;6.53;5.80;;;9.80;99.90;;;;;;5033836;28;20258;-66
2021/12/07 11:02:58;;;;;;;6.57;5.90;;;9.80;99.90;;;;;;5034436;28;20209;-66
2021/12/07 11:05:28;;;;;;;6.73;6.23;;;9.60;99.90;;;;;;5033496;28;20585;-65
2021/12/07 11:07:54;;;;;;;6.40;5.90;;;9.60;99.90;;;;;;5034367;28;20203;-65
2021/12/07 11:10:29;;;;;;;6.30;5.80;;;9.40;99.90;;;;;;5034966;28;20342;-66
2021/12/07 11:15:31;;;;;;;8.40;6.13;;;9.90;99.90;;;;;;5033711;28;20225;-65
2021/12/07 11:18:02;;;;;;;6.37;5.77;;;10.10;99.90;;;;;;5049317;28;20206;-66
2021/12/07 11:20:30;;;;;;;6.47;6.00;;;10.00;99.90;;;;;;5034411;28;20172;-65
2021/12/07 11:23:01;;;;;;;5.83;5.47;;;10.10;99.90;;;;;;5034221;28;20179;-66
2021/12/07 11:25:53;;;;;;;5.83;5.43;;;10.20;99.90;;;;;;5034165;28;20175;-64
2021/12/07 11:31:26;;;;;;;6.53;5.80;;;10.40;99.90;;;;;;5034431;28;20202;-65
2021/12/07 11:33:55;;;;;;;5.53;5.23;;;10.30;99.90;;;;;;5033811;28;20187;-64
2021/12/07 11:36:32;;;;;;;5.57;5.27;;;10.40;99.90;;;;;;5033992;28;20234;-65
2021/12/07 11:38:59;;;;;;;6.00;5.60;;;10.50;99.90;;;;;;5034506;28;20641;-65
2021/12/07 11:41:33;;;;;;;6.13;5.63;;;10.30;99.90;;;;;;5033862;28;20207;-64
2021/12/07 11:44:08;;;;;;;6.07;5.57;;;10.20;99.90;;;;;;5031704;28;20183;-65
2021/12/07 11:46:37;;;;;;;6.40;5.90;;;10.30;99.90;;;;;;5033264;28;20622;-64
2021/12/07 11:49:24;;;;;;;5.87;5.47;;;10.20;99.90;;;;;;5032581;28;20615;-65
2021/12/07 11:51:55;;;;;;;6.67;6.00;;;10.20;99.90;;;;;;5033781;28;20229;-63
2021/12/07 11:54:24;;;;;;;6.00;5.70;;;9.90;99.90;;;;;;5048872;28;20592;-65
2021/12/07 11:56:51;;;;;;;7.67;5.43;;;9.70;99.90;;;;;;5033788;28;20207;-64
2021/12/07 11:59:17;;;;;;;6.13;5.50;;;9.70;99.90;;;;;;5033408;28;20180;-65
2021/12/07 12:01:46;;;;;;;6.20;5.70;;;9.70;99.90;;;;;;5033913;28;20279;-64
2021/12/07 12:04:14;;;;;;;6.13;5.53;;;9.90;99.90;;;;;;5033408;28;20230;-64
2021/12/07 12:06:42;;;;;;;6.03;5.53;;;10.10;99.90;;;;;;5034152;28;20529;-63
2021/12/07 12:09:08;;;;;;;6.20;5.90;;;10.30;99.90;;;;;;5033481;28;20193;-65
2021/12/07 12:11:49;;;;;;;6.00;5.60;;;10.30;99.90;;;;;;5033735;28;20190;-64
2021/12/07 12:14:41;;;;;;;5.70;5.40;;;10.30;99.90;;;;;;5033234;28;20194;-64
2021/12/07 12:17:45;;;;;;;6.17;5.50;;;10.30;99.90;;;;;;5033158;28;20237;-63
2021/12/07 12:20:18;;;;;;;5.20;4.90;;;10.40;99.90;;;;;;5032904;28;20186;-64
2021/12/07 12:22:52;;;;;;;5.50;5.20;;;10.50;99.90;;;;;;5033332;28;20175;-64
2021/12/07 12:25:21;;;;;;;5.40;5.10;;;10.40;99.90;;;;;;5033407;28;20629;-64
2021/12/07 12:27:48;;;;;;;6.10;5.50;;;10.10;99.90;;;;;;5033077;28;20676;-64
2021/12/07 12:30:37;;;;;;;6.10;5.53;;;9.90;99.90;;;;;;5033406;28;20179;-64
2021/12/07 12:33:13;;;;;;;5.90;5.60;;;9.70;99.90;;;;;;5033083;28;20547;-64
2021/12/07 12:35:42;;;;;;;6.00;5.70;;;9.70;99.90;;;;;;5033091;28;20235;-64
2021/12/07 12:38:29;;;;;;;7.57;5.80;;;9.40;99.90;;;;;;5032865;28;20211;-64
2021/12/07 12:41:06;;;;;;;6.30;5.90;;;9.20;99.90;;;;;;5033290;28;20267;-65
2021/12/07 12:43:34;;;;;;;6.40;5.80;;;8.90;99.90;;;;;;5032909;28;20202;-64
2021/12/07 12:46:03;;;;;;;5.90;5.60;;;8.60;99.90;;;;;;5032161;28;20188;-64
2021/12/07 12:48:31;;;;;;;6.63;6.10;;;8.60;99.90;;;;;;5031064;28;20210;-64
2021/12/07 12:50:57;;;;;;;7.13;6.57;;;8.60;99.90;;;;;;5032993;28;20241;-65
2021/12/07 12:53:25;;;;;;;6.50;6.10;;;8.60;99.90;;;;;;5032457;28;20233;-65
2021/12/07 12:55:55;;;;;;;5.90;5.60;;;8.60;99.90;;;;;;5032464;28;20660;-65
2021/12/07 12:58:35;;;;;;;6.03;5.73;;;8.70;99.90;;;;;;5031788;28;20199;-65
2021/12/07 13:01:20;;;;;;;6.87;6.37;;;8.70;99.90;;;;;;5032860;28;20179;-65
2021/12/07 13:03:48;;;;;;;6.73;6.23;;;8.40;99.90;;;;;;5032600;28;20171;-65
2021/12/07 13:06:19;;;;;;;6.73;6.20;;;8.20;99.90;;;;;;5032897;28;20199;-63
2021/12/07 13:08:58;;;;;;;6.67;6.30;;;7.90;99.90;;;;;;5031673;28;20634;-65
2021/12/07 13:11:40;;;;;;;7.23;6.57;;;7.70;99.90;;;;;;5031004;28;20426;-65
2021/12/07 13:14:13;;;;;;;6.47;6.07;;;7.60;99.90;;;;;;5032661;28;20178;-65
2021/12/07 13:16:53;;;;;;;6.63;6.23;;;7.50;99.90;;;;;;5032476;28;20195;-65
2021/12/07 13:19:20;;;;;;;6.20;5.83;;;7.30;99.90;;;;;;5032465;28;20203;-65
2021/12/07 13:21:48;;;;;;;6.17;5.87;;;7.30;99.90;;;;;;5031354;28;20175;-64
2021/12/07 13:24:37;;;;;;;6.13;5.83;;;7.30;99.90;;;;;;5032260;28;20206;-65
2021/12/07 13:27:10;;;;;;;7.03;6.53;;;7.40;99.90;;;;;;5031688;28;20205;-65
2021/12/07 13:29:43;;;;;;;7.03;6.43;;;7.30;99.90;;;;;;5032215;28;20190;-64
2021/12/07 13:32:10;;;;;;;7.37;6.87;;;7.20;99.90;;;;;;5032087;28;20180;-65
2021/12/07 13:34:38;;;;;;;6.60;6.30;;;7.10;99.90;;;;;;5032140;28;20202;-65
2021/12/07 13:37:09;;;;;;;7.50;7.00;;;7.00;99.90;;;;;;5031668;28;20223;-65
2021/12/07 13:39:35;;;;;;;6.77;6.27;;;6.80;99.90;;;;;;5031869;28;20267;-65
2021/12/07 13:42:11;;;;;;;7.07;6.47;;;6.80;99.90;;;;;;5031273;28;20258;-64
2021/12/07 13:44:47;;;;;;;6.60;6.20;;;6.70;99.90;;;;;;5031864;28;20175;-66
2021/12/07 13:47:19;;;;;;;7.30;6.90;;;6.60;99.90;;;;;;5031532;28;20225;-64
2021/12/07 13:50:09;;;;;;;7.90;7.40;;;6.50;99.90;;;;;;5028012;28;20668;-65
2021/12/07 13:52:40;;;;;;;7.13;6.53;;;6.40;99.90;;;;;;5007502;28;20207;-65
2021/12/07 13:55:10;;;;;;;8.23;7.20;;;6.20;99.90;;;;;;5025177;28;20284;-65
2021/12/07 13:57:38;;;;;;;7.60;7.03;;;6.20;99.90;;;;;;5031014;28;20202;-64
2021/12/07 14:00:15;;;;;;;7.43;6.87;;;6.10;99.90;;;;;;5031707;28;20198;-65
2021/12/07 14:02:45;;;;;;;7.17;6.67;;;6.10;99.90;;;;;;5029871;28;20653;-64
2021/12/07 14:05:20;;;;;;;7.13;6.53;;;6.00;99.90;;;;;;5030961;28;20669;-64
2021/12/07 14:07:47;;;;;;;7.33;6.80;;;5.90;99.90;;;;;;5031214;28;20668;-64
2021/12/07 14:10:22;;;;;;;7.40;6.80;;;5.80;99.90;;;;;;5031415;28;20182;-64
2021/12/07 14:12:49;;;;;;;8.20;7.47;;;5.80;99.90;;;;;;5030981;28;20202;-63
2021/12/07 14:15:26;;;;;;;7.30;6.80;;;5.70;99.90;;;;;;5031366;28;20187;-65
2021/12/07 14:17:55;;;;;;;8.30;6.67;;;5.70;99.90;;;;;;5030099;28;20202;-63
2021/12/07 14:20:38;;;;;;;6.87;6.47;;;5.70;99.90;;;;;;5031601;28;20527;-65
2021/12/07 14:23:24;;;;;;;7.47;6.80;;;5.60;99.90;;;;;;5011890;28;20238;-65
2021/12/07 14:26:05;;;;;;;6.93;6.53;;;5.50;99.90;;;;;;5011801;28;20176;-64
2021/12/07 14:28:44;;;;;;;7.40;6.80;;;5.50;99.90;;;;;;5030107;28;20207;-65
2021/12/07 14:31:14;;;;;;;8.70;8.20;;;5.40;99.90;;;;;;5031409;28;20271;-63